createdAt,value
2023-08-31T00:01:13.492Z,60.83
2023-08-31T00:03:41.220Z,61.05
2023-08-31T00:06:08.787Z,61.21
2023-08-31T00:08:36.359Z,61.60
2023-08-31T00:11:04.069Z,61.57
2023-08-31T00:13:31.468Z,61.38
2023-08-31T00:15:59.573Z,61.79
2023-08-31T00:18:27.674Z,62.08
2023-08-31T00:20:55.204Z,61.70
2023-08-31T00:23:22.701Z,61.83
2023-08-31T00:25:50.457Z,61.94
2023-08-31T00:28:19.451Z,61.83
2023-08-31T00:30:47.470Z,61.74
2023-08-31T00:33:16.559Z,61.89
2023-08-31T00:35:47.163Z,61.34
2023-08-31T00:38:15.600Z,61.58
2023-08-31T00:40:46.588Z,61.36
2023-08-31T00:43:19.017Z,61.64
2023-08-31T00:46:00.330Z,61.13
2023-08-31T00:48:28.132Z,61.60
2023-08-31T00:50:55.983Z,61.51
2023-08-31T00:53:24.306Z,61.59
2023-08-31T00:55:52.267Z,61.55
2023-08-31T00:58:20.345Z,61.40
2023-08-31T01:01:03.045Z,61.32
2023-08-31T01:04:03.506Z,61.46
2023-08-31T01:07:10.130Z,61.64
2023-08-31T01:09:46.583Z,61.70
2023-08-31T01:12:22.333Z,61.33
2023-08-31T01:15:00.557Z,61.81
2023-08-31T01:17:29.811Z,61.64
2023-08-31T01:20:00.469Z,61.70
2023-08-31T01:22:38.962Z,61.63
2023-08-31T01:25:10.067Z,61.61
2023-08-31T01:27:38.753Z,61.33
2023-08-31T01:30:07.363Z,61.53
2023-08-31T01:32:35.364Z,61.75
2023-08-31T01:35:06.299Z,61.29
2023-08-31T01:37:52.534Z,61.51
2023-08-31T01:40:24.956Z,61.50
2023-08-31T01:42:52.631Z,61.26
2023-08-31T01:45:22.381Z,61.19
2023-08-31T01:47:50.284Z,61.46
2023-08-31T01:50:19.702Z,61.33
2023-08-31T01:52:47.501Z,61.44
2023-08-31T01:55:16.915Z,61.42
2023-08-31T01:57:44.424Z,61.04
2023-08-31T02:00:12.773Z,61.09
2023-08-31T02:02:42.728Z,60.78
2023-08-31T02:05:11.047Z,60.61
2023-08-31T02:07:38.656Z,60.63
2023-08-31T02:10:09.527Z,60.61
2023-08-31T02:12:38.214Z,60.82
2023-08-31T02:15:07.040Z,60.70
2023-08-31T02:17:35.637Z,60.57
2023-08-31T02:20:05.837Z,60.42
2023-08-31T02:22:35.235Z,60.48
2023-08-31T02:25:02.961Z,60.62
2023-08-31T02:27:30.384Z,60.47
2023-08-31T02:29:57.998Z,60.35
2023-08-31T02:32:25.745Z,60.46
2023-08-31T02:34:53.525Z,60.76
2023-08-31T02:37:20.933Z,60.49
2023-08-31T02:39:48.774Z,60.48
2023-08-31T02:42:16.166Z,60.53
2023-08-31T02:44:43.609Z,60.50
2023-08-31T02:47:11.398Z,60.54
2023-08-31T02:49:38.868Z,60.61
2023-08-31T02:52:06.443Z,60.55
2023-08-31T02:54:34.183Z,60.33
2023-08-31T02:57:01.652Z,60.42
2023-08-31T02:59:29.552Z,60.21
2023-08-31T03:01:57.364Z,60.29
2023-08-31T03:04:25.906Z,60.50
2023-08-31T03:06:53.358Z,60.58
2023-08-31T03:09:21.405Z,60.43
2023-08-31T03:11:48.978Z,60.32
2023-08-31T03:14:16.387Z,60.58
2023-08-31T03:16:44.102Z,60.53
2023-08-31T03:19:11.626Z,60.41
2023-08-31T03:21:39.179Z,60.55
2023-08-31T03:24:07.074Z,60.62
2023-08-31T03:26:35.063Z,60.77
2023-08-31T03:29:04.725Z,60.39
2023-08-31T03:31:33.041Z,60.47
2023-08-31T03:34:00.456Z,60.24
2023-08-31T03:36:28.335Z,60.55
2023-08-31T03:38:56.109Z,60.63
2023-08-31T03:41:23.710Z,60.31
2023-08-31T03:43:51.427Z,60.31
2023-08-31T03:46:22.837Z,60.44
2023-08-31T03:48:50.364Z,60.51
2023-08-31T03:51:17.803Z,60.49
2023-08-31T03:53:46.520Z,60.62
2023-08-31T03:56:14.016Z,60.78
2023-08-31T03:58:42.929Z,61.15
2023-08-31T04:01:11.902Z,61.22
2023-08-31T04:03:39.843Z,61.22
2023-08-31T04:06:07.600Z,61.38
2023-08-31T04:08:35.065Z,61.22
2023-08-31T04:11:04.709Z,61.27
2023-08-31T04:13:32.129Z,60.91
2023-08-31T04:15:59.611Z,60.95
2023-08-31T04:18:27.422Z,60.98
2023-08-31T04:20:55.805Z,60.84
2023-08-31T04:23:23.261Z,60.75
2023-08-31T04:25:52.690Z,60.62
2023-08-31T04:28:20.201Z,60.63
2023-08-31T04:30:47.633Z,60.37
2023-08-31T04:33:15.514Z,60.80
2023-08-31T04:35:43.481Z,60.76
2023-08-31T04:38:11.153Z,60.80
2023-08-31T04:40:38.806Z,60.90
2023-08-31T04:43:06.249Z,60.98
2023-08-31T04:45:33.732Z,60.99
2023-08-31T04:48:01.503Z,61.12
2023-08-31T04:50:29.957Z,60.97
2023-08-31T04:52:57.569Z,61.07
2023-08-31T04:55:26.415Z,60.79
2023-08-31T04:57:53.878Z,60.78
2023-08-31T05:00:21.636Z,61.01
2023-08-31T05:02:49.329Z,60.78
2023-08-31T05:05:16.830Z,60.88
2023-08-31T05:07:44.492Z,60.48
2023-08-31T05:10:12.488Z,60.23
2023-08-31T05:12:39.944Z,60.61
2023-08-31T05:15:07.854Z,60.50
2023-08-31T05:17:35.687Z,60.54
2023-08-31T05:20:05.279Z,60.45
2023-08-31T05:22:32.722Z,60.06
2023-08-31T05:25:01.678Z,59.73
2023-08-31T05:27:29.524Z,59.72
2023-08-31T05:29:56.938Z,59.22
2023-08-31T05:32:24.604Z,58.98
2023-08-31T05:34:51.989Z,58.96
2023-08-31T05:37:19.369Z,58.97
2023-08-31T05:39:51.001Z,58.99
2023-08-31T05:42:19.242Z,59.21
2023-08-31T05:44:47.015Z,58.65
2023-08-31T05:47:14.397Z,58.62
2023-08-31T05:49:41.795Z,57.79
2023-08-31T05:52:09.703Z,58.05
2023-08-31T05:54:37.111Z,58.35
2023-08-31T05:57:06.621Z,58.07
2023-08-31T05:59:34.350Z,57.62
2023-08-31T06:02:01.871Z,57.09
2023-08-31T06:04:29.717Z,56.48
2023-08-31T06:06:57.198Z,56.83
2023-08-31T06:09:24.653Z,56.60
2023-08-31T06:11:52.337Z,56.40
2023-08-31T06:14:20.625Z,56.01
2023-08-31T06:16:48.333Z,56.27
2023-08-31T06:19:16.664Z,55.62
2023-08-31T06:21:44.321Z,55.60
2023-08-31T06:24:14.025Z,55.84
2023-08-31T06:26:42.215Z,55.54
2023-08-31T06:29:11.742Z,55.02
2023-08-31T06:31:39.182Z,54.59
2023-08-31T06:34:06.933Z,55.12
2023-08-31T06:36:34.986Z,55.22
2023-08-31T06:39:02.394Z,55.52
2023-08-31T06:41:30.219Z,54.85
2023-08-31T06:43:57.726Z,55.32
2023-08-31T06:46:25.630Z,62.41
2023-08-31T06:48:53.875Z,58.11
2023-08-31T06:51:23.125Z,55.69
2023-08-31T06:53:52.785Z,55.72
2023-08-31T06:56:20.411Z,54.62
2023-08-31T06:58:47.823Z,54.79
2023-08-31T07:01:15.666Z,54.78
2023-08-31T07:03:43.347Z,54.81
2023-08-31T07:06:10.799Z,54.74
2023-08-31T07:08:41.630Z,55.14
2023-08-31T07:11:09.062Z,54.69
2023-08-31T07:13:36.420Z,54.68
2023-08-31T07:16:04.148Z,54.34
2023-08-31T07:18:31.545Z,54.20
2023-08-31T07:20:59.087Z,54.31
2023-08-31T07:23:26.874Z,53.11
2023-08-31T07:25:58.961Z,53.12
2023-08-31T07:28:27.147Z,53.52
2023-08-31T07:31:07.460Z,52.63
2023-08-31T07:33:36.984Z,52.24
2023-08-31T07:36:09.013Z,51.08
2023-08-31T07:38:36.734Z,51.67
2023-08-31T07:41:05.485Z,51.76
2023-08-31T07:43:33.103Z,52.58
2023-08-31T07:46:00.905Z,51.53
2023-08-31T07:48:28.502Z,52.21
2023-08-31T07:50:56.565Z,51.97
2023-08-31T07:53:24.278Z,51.78
2023-08-31T07:55:55.906Z,52.03
2023-08-31T07:58:24.755Z,52.11
2023-08-31T08:00:56.172Z,52.07
2023-08-31T08:03:24.730Z,50.33
2023-08-31T08:05:52.626Z,50.53
2023-08-31T08:08:20.017Z,49.91
2023-08-31T08:10:47.957Z,50.00
2023-08-31T08:13:16.528Z,50.44
2023-08-31T08:15:43.954Z,49.34
2023-08-31T08:18:11.696Z,48.95
2023-08-31T08:20:39.221Z,49.55
2023-08-31T08:23:07.211Z,48.98
2023-08-31T08:25:35.412Z,47.55
2023-08-31T08:28:04.308Z,48.22
2023-08-31T08:30:31.772Z,49.44
2023-08-31T08:32:59.982Z,49.02
2023-08-31T08:35:27.460Z,48.89
2023-08-31T08:37:54.865Z,48.83
2023-08-31T08:40:22.616Z,48.51
2023-08-31T08:42:51.642Z,47.90
2023-08-31T08:45:20.497Z,47.41
2023-08-31T08:47:48.259Z,47.01
2023-08-31T08:50:16.102Z,47.25
2023-08-31T08:52:44.239Z,46.14
2023-08-31T08:55:12.824Z,46.29
2023-08-31T08:57:40.827Z,46.36
2023-08-31T09:00:08.910Z,44.48
2023-08-31T09:02:36.850Z,43.85
2023-08-31T09:05:04.853Z,45.11
2023-08-31T09:07:36.399Z,44.47
2023-08-31T09:10:05.362Z,43.95
2023-08-31T09:12:33.360Z,43.61
2023-08-31T09:15:07.831Z,42.15
2023-08-31T09:17:40.784Z,41.91
2023-08-31T09:20:10.109Z,41.75
2023-08-31T09:22:37.915Z,42.51
2023-08-31T09:25:09.874Z,42.72
2023-08-31T09:27:41.585Z,40.73
2023-08-31T09:30:09.512Z,41.25
2023-08-31T09:32:37.416Z,41.86
2023-08-31T09:35:17.793Z,41.44
2023-08-31T09:37:58.301Z,40.15
2023-08-31T09:40:26.120Z,41.40
2023-08-31T09:42:53.689Z,40.75
2023-08-31T09:45:44.775Z,40.40
2023-08-31T09:48:16.367Z,39.35
2023-08-31T09:50:47.121Z,40.15
2023-08-31T09:53:17.446Z,38.64
2023-08-31T09:55:45.324Z,40.23
2023-08-31T09:58:16.598Z,40.12
2023-08-31T10:00:45.050Z,40.54
2023-08-31T10:03:19.030Z,40.29
2023-08-31T10:05:48.798Z,40.53
2023-08-31T10:08:17.036Z,40.54
2023-08-31T10:10:45.188Z,40.05
2023-08-31T10:13:13.646Z,40.36
2023-08-31T10:15:43.004Z,40.19
2023-08-31T10:18:10.466Z,41.32
2023-08-31T10:20:37.948Z,41.17
2023-08-31T10:23:06.815Z,41.94
2023-08-31T10:26:00.986Z,41.98
2023-08-31T10:28:29.575Z,42.43
2023-08-31T10:31:08.422Z,42.49
2023-08-31T10:33:40.373Z,43.22
2023-08-31T10:36:15.647Z,42.28
2023-08-31T10:39:00.687Z,41.97
2023-08-31T10:41:39.880Z,42.18
2023-08-31T10:44:20.974Z,42.86
2023-08-31T10:46:49.864Z,42.18
2023-08-31T10:49:20.079Z,42.43
2023-08-31T10:51:55.595Z,41.67
2023-08-31T10:54:36.700Z,41.00
2023-08-31T10:57:08.306Z,41.64
2023-08-31T10:59:46.517Z,42.15
2023-08-31T11:02:52.624Z,41.24
2023-08-31T11:05:23.511Z,42.00
2023-08-31T11:07:54.290Z,41.62
2023-08-31T11:10:29.123Z,42.82
2023-08-31T11:12:58.488Z,42.21
2023-08-31T11:15:27.694Z,41.40
2023-08-31T11:17:56.191Z,42.52
2023-08-31T11:20:25.112Z,41.91
2023-08-31T11:22:55.814Z,41.74
2023-08-31T11:25:25.367Z,41.88
2023-08-31T11:27:57.380Z,40.86
2023-08-31T11:30:26.776Z,40.69
2023-08-31T11:32:55.027Z,40.53
2023-08-31T11:35:24.278Z,39.28
2023-08-31T11:37:56.471Z,40.04
2023-08-31T11:40:24.352Z,39.44
2023-08-31T11:42:52.841Z,39.44
2023-08-31T11:45:21.837Z,39.36
2023-08-31T11:47:50.694Z,39.55
2023-08-31T11:50:18.721Z,40.41
2023-08-31T11:52:46.283Z,40.55
2023-08-31T11:55:16.036Z,41.15
2023-08-31T11:57:51.204Z,40.39
2023-08-31T12:00:23.432Z,39.80
2023-08-31T12:03:00.537Z,39.54
2023-08-31T12:05:29.219Z,39.70
2023-08-31T12:07:57.322Z,40.17
2023-08-31T12:10:26.832Z,40.55
2023-08-31T12:12:56.681Z,39.75
2023-08-31T12:15:24.431Z,39.12
2023-08-31T12:17:56.385Z,38.39
2023-08-31T12:20:28.040Z,37.91
2023-08-31T12:22:55.584Z,37.81
2023-08-31T12:25:23.315Z,38.90
2023-08-31T12:27:51.283Z,37.76
2023-08-31T12:30:18.809Z,39.08
2023-08-31T12:32:46.292Z,38.29
2023-08-31T12:35:15.477Z,38.49
2023-08-31T12:37:43.170Z,38.20
2023-08-31T12:40:11.302Z,38.05
2023-08-31T12:42:39.019Z,38.39
2023-08-31T12:45:07.001Z,38.43
2023-08-31T12:47:35.821Z,37.29
2023-08-31T12:50:04.374Z,37.18
2023-08-31T12:52:31.832Z,36.96
2023-08-31T12:54:59.260Z,36.32
2023-08-31T12:57:27.002Z,37.06
2023-08-31T12:59:54.407Z,36.43
2023-08-31T13:02:21.921Z,36.02
2023-08-31T13:04:50.939Z,36.94
2023-08-31T13:07:18.638Z,37.63
2023-08-31T13:09:47.331Z,36.27
2023-08-31T13:12:16.784Z,35.80
2023-08-31T13:14:47.588Z,37.05
2023-08-31T13:17:15.344Z,36.76
2023-08-31T13:19:43.063Z,35.61
2023-08-31T13:22:16.357Z,36.87
2023-08-31T13:24:44.162Z,35.59
2023-08-31T13:27:11.893Z,35.19
2023-08-31T13:29:39.325Z,35.19
2023-08-31T13:32:07.109Z,36.36
2023-08-31T13:34:35.123Z,36.17
2023-08-31T13:37:05.069Z,35.64
2023-08-31T13:39:36.774Z,35.20
2023-08-31T13:42:05.054Z,35.54
2023-08-31T13:44:32.924Z,35.82
2023-08-31T13:47:00.592Z,35.40
2023-08-31T13:49:29.028Z,35.66
2023-08-31T13:51:56.930Z,35.19
2023-08-31T13:54:24.415Z,34.44
2023-08-31T13:56:52.609Z,34.89
2023-08-31T13:59:20.316Z,34.88
2023-08-31T14:01:47.788Z,34.55
2023-08-31T14:04:15.556Z,35.09
2023-08-31T14:06:43.034Z,34.50
2023-08-31T14:09:10.485Z,34.48
2023-08-31T14:11:38.252Z,34.26
2023-08-31T14:14:15.845Z,35.15
2023-08-31T14:16:43.666Z,34.42
2023-08-31T14:19:12.354Z,34.98
2023-08-31T14:21:39.912Z,34.95
2023-08-31T14:24:08.114Z,34.76
2023-08-31T14:26:35.584Z,34.66
2023-08-31T14:29:03.102Z,34.89
2023-08-31T14:31:30.842Z,35.64
2023-08-31T14:33:58.262Z,34.51
2023-08-31T14:36:27.172Z,35.70
2023-08-31T14:38:55.086Z,36.42
2023-08-31T14:41:23.207Z,35.71
2023-08-31T14:43:54.123Z,36.22
2023-08-31T14:46:25.337Z,35.25
2023-08-31T14:48:54.166Z,35.42
2023-08-31T14:51:22.579Z,36.46
2023-08-31T14:53:50.018Z,35.34
2023-08-31T14:56:17.402Z,35.87
2023-08-31T14:58:45.083Z,35.79
2023-08-31T15:01:12.641Z,35.62
2023-08-31T15:03:40.152Z,35.61
2023-08-31T15:06:07.869Z,34.87
2023-08-31T15:08:40.804Z,35.22
2023-08-31T15:11:09.240Z,35.50
2023-08-31T15:13:36.721Z,36.09
2023-08-31T15:16:04.242Z,34.59
2023-08-31T15:18:32.107Z,34.98
2023-08-31T15:20:59.607Z,35.84
2023-08-31T15:23:27.309Z,36.18
2023-08-31T15:26:05.173Z,35.32
2023-08-31T15:28:32.609Z,35.67
2023-08-31T15:31:00.393Z,36.55
2023-08-31T15:33:28.650Z,36.66
2023-08-31T15:36:09.587Z,36.58
2023-08-31T15:38:38.357Z,35.75
2023-08-31T15:41:07.999Z,36.26
2023-08-31T15:43:38.049Z,36.84
2023-08-31T15:46:05.821Z,35.96
2023-08-31T15:48:33.238Z,36.08
2023-08-31T15:51:00.921Z,35.93
2023-08-31T15:53:29.380Z,36.45
2023-08-31T15:55:57.048Z,35.88
2023-08-31T15:58:27.595Z,36.43
2023-08-31T16:01:05.620Z,36.38
2023-08-31T16:03:35.332Z,36.44
2023-08-31T16:06:05.359Z,36.31
2023-08-31T16:08:33.154Z,35.71
2023-08-31T16:11:04.654Z,36.07
2023-08-31T16:13:32.526Z,36.58
2023-08-31T16:16:00.193Z,36.49
2023-08-31T16:18:28.055Z,36.53
2023-08-31T16:20:55.438Z,36.32
2023-08-31T16:23:25.592Z,36.21
2023-08-31T16:25:53.223Z,36.67
2023-08-31T16:28:20.971Z,36.70
2023-08-31T16:30:48.744Z,36.86
2023-08-31T16:33:16.550Z,36.95
2023-08-31T16:35:44.135Z,37.37
2023-08-31T16:38:12.208Z,37.37
2023-08-31T16:40:40.174Z,37.48
2023-08-31T16:43:07.590Z,37.85
2023-08-31T16:45:35.285Z,37.71
2023-08-31T16:48:03.176Z,37.47
2023-08-31T16:50:35.297Z,37.78
2023-08-31T16:53:04.329Z,37.83
2023-08-31T16:55:32.184Z,38.00
2023-08-31T16:58:00.047Z,37.96
2023-08-31T17:00:27.830Z,38.35
2023-08-31T17:02:55.633Z,38.76
2023-08-31T17:05:23.230Z,38.46
2023-08-31T17:07:50.964Z,38.85
2023-08-31T17:10:18.515Z,38.76
2023-08-31T17:12:46.401Z,39.57
2023-08-31T17:15:14.441Z,39.79
2023-08-31T17:17:45.576Z,40.31
2023-08-31T17:20:19.399Z,40.80
2023-08-31T17:22:47.619Z,41.02
2023-08-31T17:25:15.243Z,41.23
2023-08-31T17:27:42.983Z,42.01
2023-08-31T17:30:10.660Z,42.64
2023-08-31T17:32:38.425Z,42.82
2023-08-31T17:35:07.483Z,42.80
2023-08-31T17:37:35.434Z,43.08
2023-08-31T17:40:09.241Z,43.29
2023-08-31T17:42:38.322Z,43.63
2023-08-31T17:45:06.197Z,43.83
2023-08-31T17:47:33.780Z,43.99
2023-08-31T17:50:01.789Z,44.27
2023-08-31T17:52:29.438Z,44.37
2023-08-31T17:54:56.946Z,44.71
2023-08-31T17:57:29.242Z,44.96
2023-08-31T17:59:56.661Z,45.23
2023-08-31T18:02:24.168Z,45.57
2023-08-31T18:04:52.374Z,45.88
2023-08-31T18:07:19.897Z,46.05
2023-08-31T18:09:47.386Z,46.48
2023-08-31T18:12:15.232Z,46.69
2023-08-31T18:14:44.702Z,47.02
2023-08-31T18:17:13.249Z,46.95
2023-08-31T18:19:40.987Z,47.12
2023-08-31T18:22:08.409Z,47.15
2023-08-31T18:24:37.865Z,47.22
2023-08-31T18:27:11.055Z,47.66
2023-08-31T18:29:38.695Z,47.72
2023-08-31T18:32:06.792Z,48.08
2023-08-31T18:34:34.306Z,48.27
2023-08-31T18:37:01.822Z,48.36
2023-08-31T18:39:29.532Z,48.62
2023-08-31T18:41:57.489Z,48.85
2023-08-31T18:44:25.460Z,49.02
2023-08-31T18:46:53.199Z,49.05
2023-08-31T18:49:20.716Z,49.24
2023-08-31T18:51:48.740Z,49.56
2023-08-31T18:54:16.833Z,49.47
2023-08-31T18:56:44.265Z,49.44
2023-08-31T18:59:12.006Z,49.83
2023-08-31T19:01:39.849Z,49.97
2023-08-31T19:04:07.389Z,50.08
2023-08-31T19:06:34.895Z,50.42
2023-08-31T19:09:04.655Z,50.80
2023-08-31T19:11:32.205Z,50.77
2023-08-31T19:13:59.669Z,50.92
2023-08-31T19:16:27.391Z,51.03
2023-08-31T19:18:55.138Z,51.34
2023-08-31T19:21:24.514Z,51.20
2023-08-31T19:23:52.274Z,56.26
2023-08-31T19:26:19.806Z,52.74
2023-08-31T19:28:47.297Z,51.55
2023-08-31T19:31:14.957Z,51.33
2023-08-31T19:33:42.409Z,51.47
2023-08-31T19:36:11.233Z,51.58
2023-08-31T19:38:40.666Z,51.98
2023-08-31T19:41:08.111Z,51.96
2023-08-31T19:43:35.554Z,52.33
2023-08-31T19:46:03.951Z,52.10
2023-08-31T19:48:32.841Z,52.47
2023-08-31T19:51:09.714Z,52.73
2023-08-31T19:53:37.619Z,52.94
2023-08-31T19:56:05.958Z,52.77
2023-08-31T19:58:35.520Z,53.16
2023-08-31T20:01:03.673Z,53.18
2023-08-31T20:03:37.119Z,53.10
2023-08-31T20:06:08.431Z,53.27
2023-08-31T20:08:38.182Z,53.27
2023-08-31T20:11:06.306Z,53.33
2023-08-31T20:13:33.813Z,53.45
2023-08-31T20:16:04.239Z,53.74
2023-08-31T20:18:32.140Z,53.76
2023-08-31T20:20:59.615Z,53.85
2023-08-31T20:23:27.297Z,53.90
2023-08-31T20:25:54.745Z,53.92
2023-08-31T20:28:22.255Z,53.98
2023-08-31T20:30:50.095Z,54.16
2023-08-31T20:33:17.822Z,54.37
2023-08-31T20:35:45.308Z,54.31
2023-08-31T20:38:13.749Z,54.44
2023-08-31T20:40:41.897Z,54.68
2023-08-31T20:43:09.387Z,54.76
2023-08-31T20:45:39.477Z,54.80
2023-08-31T20:48:10.373Z,54.68
2023-08-31T20:50:38.767Z,55.02
2023-08-31T20:53:06.444Z,55.08
2023-08-31T20:55:33.961Z,55.16
2023-08-31T20:58:01.665Z,55.32
2023-08-31T21:00:29.117Z,55.31
2023-08-31T21:02:56.676Z,55.14
2023-08-31T21:05:24.391Z,54.98
2023-08-31T21:07:51.833Z,54.89
2023-08-31T21:10:19.524Z,55.21
2023-08-31T21:12:47.365Z,55.27
2023-08-31T21:15:14.773Z,55.51
2023-08-31T21:17:42.514Z,55.32
2023-08-31T21:20:10.553Z,55.20
2023-08-31T21:22:38.150Z,55.07
2023-08-31T21:25:06.108Z,55.00
2023-08-31T21:27:33.819Z,54.93
2023-08-31T21:30:01.286Z,54.75
2023-08-31T21:32:28.707Z,54.82
2023-08-31T21:34:56.434Z,54.82
2023-08-31T21:37:23.830Z,54.47
2023-08-31T21:39:51.275Z,54.49
2023-08-31T21:42:19.003Z,54.70
2023-08-31T21:44:46.440Z,54.79
2023-08-31T21:47:13.824Z,55.01
2023-08-31T21:49:41.535Z,55.16
2023-08-31T21:52:09.030Z,55.13
2023-08-31T21:54:36.496Z,54.99
2023-08-31T21:57:05.602Z,55.34
2023-08-31T21:59:33.031Z,55.59
2023-08-31T22:02:00.662Z,55.50
2023-08-31T22:04:29.065Z,55.50
2023-08-31T22:06:57.180Z,55.66
2023-08-31T22:09:24.969Z,55.95
2023-08-31T22:11:52.751Z,56.03
2023-08-31T22:14:20.463Z,56.21
2023-08-31T22:16:48.452Z,56.22
2023-08-31T22:19:16.605Z,56.07
2023-08-31T22:21:44.727Z,56.20
2023-08-31T22:24:12.284Z,55.99
2023-08-31T22:26:40.046Z,56.08
2023-08-31T22:29:07.592Z,56.31
2023-08-31T22:31:35.049Z,56.28
2023-08-31T22:34:03.840Z,56.05
2023-08-31T22:36:31.495Z,56.23
2023-08-31T22:38:59.960Z,56.16
2023-08-31T22:41:27.739Z,56.39
2023-08-31T22:43:56.180Z,56.27
2023-08-31T22:46:23.706Z,56.33
2023-08-31T22:48:51.419Z,55.93
2023-08-31T22:51:18.860Z,56.00
2023-08-31T22:53:46.302Z,55.64
2023-08-31T22:56:14.093Z,55.28
2023-08-31T22:58:41.556Z,55.40
2023-08-31T23:01:09.078Z,54.88
2023-08-31T23:03:36.795Z,54.92
2023-08-31T23:06:04.556Z,54.93
2023-08-31T23:08:31.952Z,54.82
2023-08-31T23:11:01.080Z,54.70
2023-08-31T23:13:28.954Z,54.69
2023-08-31T23:15:56.428Z,54.49
2023-08-31T23:18:24.792Z,54.31
2023-08-31T23:20:52.195Z,53.91
2023-08-31T23:23:19.629Z,53.88
2023-08-31T23:25:47.376Z,53.77
2023-08-31T23:28:15.096Z,53.46
2023-08-31T23:30:42.756Z,53.82
2023-08-31T23:33:11.320Z,53.82
2023-08-31T23:35:38.797Z,53.67
2023-08-31T23:38:08.384Z,53.26
2023-08-31T23:40:36.195Z,53.56
2023-08-31T23:43:04.067Z,53.67
2023-08-31T23:45:31.948Z,53.60
2023-08-31T23:47:59.914Z,53.32
2023-08-31T23:50:27.667Z,53.02
2023-08-31T23:52:55.182Z,53.44
2023-08-31T23:55:22.890Z,53.07
2023-08-31T23:57:50.370Z,53.21
